Time;durP1;ratioP1;P1;durP2;ratioP2;P2;SDS_P1;SDS_P2;PMS_P1;PMS_P2;Temp;Humidity;BMP_temperature;BMP_pressure;BME280_temperature;BME280_humidity;BME280_pressure;Samples;Min_cycle;Max_cycle;Signal;HPM_P1;HPM_P2
2022/03/19 00:00:50;;;;;;;28.58;22.27;;;21.80;45.10;;;;;;4971036;28;20031;-73
2022/03/19 00:03:16;;;;;;;29.25;22.50;;;21.80;45.20;;;;;;4970565;28;20030;-72
2022/03/19 00:05:41;;;;;;;30.40;21.33;;;21.90;45.20;;;;;;4955115;28;20039;-73
2022/03/19 00:08:07;;;;;;;29.67;22.58;;;21.90;45.50;;;;;;4971080;28;20047;-73
2022/03/19 00:10:33;;;;;;;29.15;22.02;;;21.90;45.50;;;;;;4974363;28;20038;-73
2022/03/19 00:12:59;;;;;;;31.85;23.15;;;21.90;45.40;;;;;;4974434;28;20030;-73
2022/03/19 00:15:25;;;;;;;31.05;21.90;;;21.90;45.40;;;;;;4975847;28;20034;-72
2022/03/19 00:17:52;;;;;;;30.08;22.27;;;21.90;45.40;;;;;;4975666;28;20023;-73
2022/03/19 00:20:18;;;;;;;29.95;21.48;;;21.90;45.50;;;;;;4976148;28;20710;-73
2022/03/19 00:22:44;;;;;;;26.92;21.10;;;21.90;45.40;;;;;;4975369;28;20026;-73
2022/03/19 00:25:12;;;;;;;30.00;22.27;;;21.90;45.50;;;;;;4975959;28;20030;-72
2022/03/19 00:27:40;;;;;;;29.25;20.85;;;21.90;45.50;;;;;;4974531;28;20035;-72
2022/03/19 00:30:06;;;;;;;32.70;22.25;;;22.00;45.60;;;;;;4974568;28;20031;-73
2022/03/19 00:32:32;;;;;;;31.58;22.23;;;21.90;45.70;;;;;;4974087;28;20506;-73
2022/03/19 00:34:58;;;;;;;29.75;21.33;;;22.00;45.90;;;;;;4974526;28;20034;-73
2022/03/19 00:37:23;;;;;;;28.95;21.45;;;21.90;45.80;;;;;;4975422;28;20066;-73
2022/03/19 00:39:49;;;;;;;31.48;20.60;;;21.90;45.80;;;;;;4975490;28;20022;-72
2022/03/19 00:42:15;;;;;;;27.92;21.00;;;22.00;45.80;;;;;;4972540;28;20047;-73
2022/03/19 00:44:42;;;;;;;28.30;20.63;;;22.00;45.80;;;;;;4975344;28;20022;-73
2022/03/19 00:47:08;;;;;;;27.48;19.77;;;22.00;45.80;;;;;;4975495;28;20034;-73
2022/03/19 00:49:33;;;;;;;27.60;19.60;;;22.00;45.80;;;;;;4975334;28;20058;-73
2022/03/19 00:51:59;;;;;;;29.70;20.88;;;22.00;45.80;;;;;;4975070;28;20057;-73
2022/03/19 00:54:25;;;;;;;30.20;21.15;;;22.00;45.90;;;;;;4975205;28;20076;-73
2022/03/19 00:56:50;;;;;;;37.33;22.85;;;22.00;45.80;;;;;;4974893;28;20030;-73
2022/03/19 00:59:16;;;;;;;30.50;20.73;;;22.00;46.20;;;;;;4974967;28;20038;-73
2022/03/19 01:01:42;;;;;;;33.53;21.58;;;22.00;46.10;;;;;;4975029;28;20035;-72
2022/03/19 01:04:08;;;;;;;31.85;21.60;;;22.00;46.20;;;;;;4974749;28;20042;-73
2022/03/19 01:06:33;;;;;;;34.45;21.80;;;22.00;46.40;;;;;;4975063;28;20392;-73
2022/03/19 01:08:59;;;;;;;29.92;21.23;;;22.00;46.50;;;;;;4975122;28;20442;-73
2022/03/19 01:11:25;;;;;;;32.92;21.42;;;22.00;46.50;;;;;;4975005;28;20034;-73
2022/03/19 01:13:52;;;;;;;33.25;21.45;;;22.00;46.60;;;;;;4973144;28;20035;-73
2022/03/19 01:16:19;;;;;;;31.67;20.25;;;22.00;46.90;;;;;;4973483;28;20442;-73
2022/03/19 01:18:49;;;;;;;35.10;22.05;;;22.10;47.00;;;;;;4974839;28;20027;-73
2022/03/19 01:21:15;;;;;;;29.10;20.30;;;22.00;47.40;;;;;;4974483;28;20038;-73
2022/03/19 01:23:41;;;;;;;31.60;19.92;;;22.10;46.70;;;;;;4974322;28;20529;-73
2022/03/19 01:26:07;;;;;;;29.38;20.20;;;22.00;46.60;;;;;;4974801;28;20113;-73
2022/03/19 01:28:33;;;;;;;29.20;19.98;;;22.00;46.50;;;;;;4973302;28;20035;-73
2022/03/19 01:30:58;;;;;;;30.63;21.10;;;22.10;46.50;;;;;;4974720;28;20423;-72
2022/03/19 01:33:24;;;;;;;32.65;20.13;;;22.00;46.40;;;;;;4974222;28;20038;-73
2022/03/19 01:35:50;;;;;;;29.30;19.98;;;22.10;46.40;;;;;;4974605;28;20089;-73
2022/03/19 01:38:15;;;;;;;28.02;19.05;;;22.10;46.50;;;;;;4974386;28;20023;-73
2022/03/19 01:40:41;;;;;;;29.95;19.02;;;22.00;46.70;;;;;;4974518;28;20035;-73
2022/03/19 01:43:07;;;;;;;29.92;18.88;;;22.00;47.50;;;;;;4972557;28;20035;-73
2022/03/19 01:45:32;;;;;;;28.75;18.48;;;22.00;47.40;;;;;;4973216;28;20057;-73
2022/03/19 01:47:58;;;;;;;30.88;18.02;;;22.00;47.30;;;;;;4974372;28;20034;-73
2022/03/19 01:50:26;;;;;;;28.70;18.50;;;22.00;47.20;;;;;;4974296;28;20035;-72
2022/03/19 01:52:52;;;;;;;28.25;18.33;;;22.10;47.10;;;;;;4973756;28;20023;-73
2022/03/19 01:55:21;;;;;;;26.05;17.17;;;22.10;46.90;;;;;;4974212;28;20031;-73
2022/03/19 01:57:47;;;;;;;27.27;17.65;;;22.10;46.80;;;;;;4973940;28;20399;-73
2022/03/19 02:00:18;;;;;;;28.00;18.35;;;22.10;46.80;;;;;;4974179;28;20476;-73
2022/03/19 02:02:46;;;;;;;26.60;17.35;;;22.00;46.70;;;;;;4973530;28;20293;-73
2022/03/19 02:05:14;;;;;;;27.55;18.40;;;22.10;46.80;;;;;;4973847;28;20082;-73
2022/03/19 02:07:44;;;;;;;27.73;17.80;;;22.10;46.80;;;;;;4973848;28;20511;-73
2022/03/19 02:10:10;;;;;;;25.98;17.75;;;22.10;46.80;;;;;;4972902;28;20115;-73
2022/03/19 02:12:37;;;;;;;26.27;17.13;;;22.10;46.90;;;;;;4972012;28;20031;-73
2022/03/19 02:15:05;;;;;;;26.60;17.85;;;22.10;46.90;;;;;;4972409;28;20527;-73
2022/03/19 02:17:31;;;;;;;24.17;16.73;;;22.10;46.90;;;;;;4973748;28;20439;-73
2022/03/19 02:19:57;;;;;;;24.90;17.23;;;22.10;46.90;;;;;;4972470;28;20054;-73
2022/03/19 02:22:26;;;;;;;24.38;16.65;;;22.10;46.90;;;;;;4973550;28;20105;-73
2022/03/19 02:27:37;;;;;;;24.33;16.13;;;22.10;46.90;;;;;;4973579;28;20062;-73
2022/03/19 02:30:07;;;;;;;25.02;16.58;;;22.10;46.90;;;;;;4973642;28;20063;-73
2022/03/19 02:32:34;;;;;;;26.55;15.95;;;22.10;47.00;;;;;;4973260;28;20407;-73
2022/03/19 02:35:00;;;;;;;26.15;16.20;;;22.10;47.00;;;;;;4973200;28;20035;-74
2022/03/19 02:37:36;;;;;;;24.85;16.67;;;22.10;47.00;;;;;;4973330;28;20640;-73
2022/03/19 02:40:02;;;;;;;24.67;15.98;;;22.10;47.00;;;;;;4971973;28;20038;-72
2022/03/19 02:42:28;;;;;;;26.10;16.38;;;22.10;47.00;;;;;;4972954;28;20484;-72
2022/03/19 02:44:54;;;;;;;26.63;16.10;;;22.10;47.00;;;;;;4973047;28;20063;-73
2022/03/19 02:47:19;;;;;;;21.40;15.38;;;22.10;47.10;;;;;;4973287;28;20081;-72
2022/03/19 02:49:45;;;;;;;22.65;15.57;;;22.10;47.70;;;;;;4971616;28;20022;-73
2022/03/19 02:52:10;;;;;;;23.45;14.77;;;22.10;47.10;;;;;;4971619;28;20038;-74
2022/03/19 02:54:36;;;;;;;36.42;24.83;;;22.10;47.40;;;;;;4972861;28;20041;-74
2022/03/19 02:57:02;;;;;;;46.42;30.58;;;21.80;43.10;;;;;;4973044;28;20053;-73
2022/03/19 02:59:30;;;;;;;31.80;20.70;;;21.60;43.10;;;;;;4973044;28;20023;-76
2022/03/19 03:01:59;;;;;;;35.30;23.83;;;21.60;46.30;;;;;;4955285;28;20038;-76
2022/03/19 03:04:25;;;;;;;38.92;26.30;;;21.70;44.80;;;;;;4955549;28;20073;-76
2022/03/19 03:06:55;;;;;;;37.83;24.35;;;21.70;44.10;;;;;;4971709;28;20030;-74
2022/03/19 03:09:23;;;;;;;37.75;24.77;;;21.70;43.50;;;;;;4971709;28;20506;-75
2022/03/19 03:11:49;;;;;;;35.60;23.48;;;21.80;43.50;;;;;;4939840;28;20092;-75
2022/03/19 03:14:16;;;;;;;34.05;23.88;;;21.80;43.40;;;;;;4972848;28;20426;-75
2022/03/19 03:16:42;;;;;;;33.42;23.60;;;21.80;43.50;;;;;;4971817;28;20034;-75
2022/03/19 03:19:11;;;;;;;36.05;23.75;;;21.80;43.60;;;;;;4972660;28;20027;-75
2022/03/19 03:21:39;;;;;;;35.60;22.80;;;21.80;43.80;;;;;;4955591;28;20031;-75
2022/03/19 03:24:08;;;;;;;31.95;22.13;;;21.80;44.00;;;;;;4972274;28;20627;-74
2022/03/19 03:26:34;;;;;;;32.80;21.35;;;21.80;44.10;;;;;;4972596;28;20106;-74
2022/03/19 03:29:00;;;;;;;34.97;22.15;;;21.90;44.30;;;;;;4971550;28;20588;-75
2022/03/19 03:31:26;;;;;;;31.35;20.83;;;21.80;44.30;;;;;;4972447;28;20031;-74
2022/03/19 03:33:53;;;;;;;29.50;20.00;;;21.80;44.40;;;;;;4971239;28;20046;-74
2022/03/19 03:36:19;;;;;;;31.20;20.15;;;21.80;44.50;;;;;;4972541;28;20031;-75
2022/03/19 03:38:45;;;;;;;30.55;21.13;;;21.80;44.60;;;;;;4972470;28;20058;-74
2022/03/19 03:41:10;;;;;;;31.45;19.27;;;21.80;44.70;;;;;;4955250;28;20031;-74
2022/03/19 03:43:36;;;;;;;30.17;20.73;;;21.80;44.80;;;;;;4970942;28;20027;-74
2022/03/19 03:46:04;;;;;;;28.95;19.98;;;21.80;44.90;;;;;;4970413;28;20511;-74
2022/03/19 03:48:31;;;;;;;30.67;20.70;;;21.80;44.80;;;;;;4972408;28;20396;-74
2022/03/19 03:50:57;;;;;;;30.02;19.30;;;21.80;45.00;;;;;;4971058;28;20031;-74
2022/03/19 03:53:26;;;;;;;26.27;18.88;;;21.80;45.10;;;;;;4972090;28;20034;-74
2022/03/19 03:55:52;;;;;;;28.67;19.27;;;21.80;45.20;;;;;;4971104;28;20027;-74
2022/03/19 03:58:18;;;;;;;28.17;19.27;;;21.80;45.30;;;;;;4972373;28;20495;-73
2022/03/19 04:00:44;;;;;;;27.73;19.17;;;21.80;45.30;;;;;;4972237;28;20066;-74
2022/03/19 04:03:11;;;;;;;27.13;18.75;;;21.80;45.40;;;;;;4971901;28;20034;-74
2022/03/19 04:05:37;;;;;;;26.45;18.88;;;21.80;45.50;;;;;;4971665;28;20081;-74
2022/03/19 04:08:03;;;;;;;25.65;17.67;;;21.80;45.60;;;;;;4972400;28;20165;-74
2022/03/19 04:10:31;;;;;;;27.30;17.85;;;21.80;45.50;;;;;;4972229;28;20106;-74
2022/03/19 04:12:57;;;;;;;28.15;18.13;;;21.80;45.70;;;;;;4970798;28;20121;-74
2022/03/19 04:15:23;;;;;;;24.33;17.63;;;21.80;45.80;;;;;;4972053;28;20038;-74
2022/03/19 04:17:48;;;;;;;26.88;17.23;;;21.80;45.80;;;;;;4972092;28;20385;-74
2022/03/19 04:20:15;;;;;;;24.85;17.23;;;21.80;45.80;;;;;;4971102;28;20030;-74
2022/03/19 04:22:44;;;;;;;27.77;18.10;;;21.80;45.80;;;;;;4971936;28;20495;-74
2022/03/19 04:25:14;;;;;;;25.70;17.48;;;21.80;46.50;;;;;;4972184;28;20030;-75
2022/03/19 04:27:42;;;;;;;26.20;18.27;;;21.80;45.90;;;;;;4970856;28;20031;-75
2022/03/19 04:30:12;;;;;;;24.45;17.65;;;21.80;45.90;;;;;;4972109;28;20026;-75
2022/03/19 04:32:53;;;;;;;30.48;17.85;;;21.80;45.90;;;;;;4971682;28;20113;-75
2022/03/19 04:38:09;;;;;;;25.40;16.65;;;21.80;46.10;;;;;;4971877;28;20476;-74
2022/03/19 04:40:36;;;;;;;25.33;16.77;;;21.80;46.10;;;;;;4972103;28;20407;-75
2022/03/19 04:43:03;;;;;;;25.55;15.70;;;21.80;46.10;;;;;;4970483;28;20023;-74
2022/03/19 04:45:28;;;;;;;20.75;15.00;;;21.80;46.10;;;;;;4971989;28;20031;-74
2022/03/19 04:47:55;;;;;;;24.27;16.67;;;21.80;46.20;;;;;;4971955;28;20407;-74
2022/03/19 04:50:21;;;;;;;24.05;16.10;;;21.70;46.20;;;;;;4971928;28;20023;-74
2022/03/19 04:52:47;;;;;;;24.00;16.35;;;21.80;46.20;;;;;;4971477;28;20085;-74
2022/03/19 04:55:13;;;;;;;21.30;15.07;;;21.80;46.30;;;;;;4970612;28;20487;-74
2022/03/19 04:57:39;;;;;;;22.92;15.25;;;21.70;46.30;;;;;;4974071;28;20038;-74
2022/03/19 05:00:07;;;;;;;21.42;15.10;;;21.70;46.40;;;;;;4975442;28;20043;-74
2022/03/19 05:02:33;;;;;;;23.10;14.95;;;21.70;46.40;;;;;;4974867;28;20043;-75
2022/03/19 05:05:00;;;;;;;22.33;15.57;;;21.70;46.50;;;;;;4974132;28;20046;-74
2022/03/19 05:07:27;;;;;;;22.20;14.13;;;21.70;46.50;;;;;;4975051;28;20038;-74
2022/03/19 05:12:41;;;;;;;22.30;14.98;;;21.70;46.60;;;;;;4975108;28;20027;-74
2022/03/19 05:15:11;;;;;;;22.17;14.45;;;21.70;46.70;;;;;;4973425;28;20403;-75
2022/03/19 05:17:37;;;;;;;23.05;14.75;;;21.70;46.80;;;;;;4957745;28;20034;-75
2022/03/19 05:20:04;;;;;;;22.83;14.55;;;21.70;46.80;;;;;;4973658;28;20030;-75
2022/03/19 05:22:30;;;;;;;23.88;14.45;;;21.70;46.90;;;;;;4974619;28;20110;-75
2022/03/19 05:24:57;;;;;;;20.92;14.00;;;21.70;47.20;;;;;;4973820;28;20121;-74
2022/03/19 05:27:24;;;;;;;21.70;14.07;;;21.70;47.20;;;;;;4974798;28;20109;-75
2022/03/19 05:29:50;;;;;;;22.73;14.73;;;21.70;47.30;;;;;;4973855;28;20031;-74
2022/03/19 05:32:17;;;;;;;20.90;13.85;;;21.70;47.30;;;;;;4973145;28;20031;-74
2022/03/19 05:34:43;;;;;;;20.70;13.52;;;21.70;47.20;;;;;;4973391;28;20031;-74
2022/03/19 05:37:09;;;;;;;22.63;13.43;;;21.70;47.30;;;;;;4973224;28;20031;-74
2022/03/19 05:39:36;;;;;;;19.98;12.80;;;21.70;47.30;;;;;;4974658;28;20431;-74
2022/03/19 05:42:03;;;;;;;18.98;13.02;;;21.70;47.30;;;;;;4974137;28;20468;-74
2022/03/19 05:44:30;;;;;;;20.25;13.57;;;21.70;47.30;;;;;;4974547;28;20380;-74
2022/03/19 05:46:59;;;;;;;21.25;13.48;;;21.70;47.40;;;;;;4972598;28;20027;-75
2022/03/19 05:49:29;;;;;;;20.17;13.77;;;21.70;47.40;;;;;;4973479;28;20030;-75
2022/03/19 05:51:55;;;;;;;;;;;21.70;47.50;;;;;;4974453;28;20031;-74
2022/03/19 05:54:21;;;;;;;19.92;12.48;;;21.70;47.50;;;;;;4973184;28;20290;-74
2022/03/19 05:56:47;;;;;;;19.90;12.65;;;21.70;48.10;;;;;;4972855;28;20037;-74
2022/03/19 05:59:13;;;;;;;21.08;13.43;;;21.70;47.50;;;;;;4974346;28;20023;-75
2022/03/19 06:01:40;;;;;;;20.95;12.88;;;21.70;47.60;;;;;;4974202;28;20420;-74
2022/03/19 06:04:05;;;;;;;19.67;12.43;;;21.60;47.60;;;;;;4973631;28;20027;-75
2022/03/19 06:06:31;;;;;;;19.20;12.52;;;21.70;47.70;;;;;;4972885;28;20034;-74
2022/03/19 06:08:57;;;;;;;20.23;12.43;;;21.70;47.70;;;;;;4971913;28;20042;-75
2022/03/19 06:11:23;;;;;;;20.00;13.02;;;21.70;47.70;;;;;;4972858;28;20101;-74
2022/03/19 06:13:49;;;;;;;19.88;12.90;;;21.70;47.70;;;;;;4973488;28;20026;-74
2022/03/19 06:16:15;;;;;;;20.92;12.18;;;21.70;47.70;;;;;;4973656;28;20522;-74
2022/03/19 06:18:46;;;;;;;19.88;12.07;;;21.70;47.60;;;;;;4972718;28;20082;-74
2022/03/19 06:21:12;;;;;;;19.65;13.02;;;21.70;47.70;;;;;;4973727;28;20114;-74
2022/03/19 06:23:38;;;;;;;21.05;12.15;;;21.60;47.70;;;;;;4973313;28;20029;-74
2022/03/19 06:26:04;;;;;;;20.20;12.52;;;21.60;47.70;;;;;;4973610;28;20037;-74
2022/03/19 06:28:29;;;;;;;18.52;11.90;;;21.60;47.60;;;;;;4972404;28;20035;-74
2022/03/19 06:30:55;;;;;;;19.60;12.48;;;21.60;47.50;;;;;;4973808;28;20042;-74
2022/03/19 06:33:21;;;;;;;18.50;12.18;;;21.60;47.50;;;;;;4973281;28;20031;-74
2022/03/19 06:38:32;;;;;;;18.10;11.88;;;21.60;47.50;;;;;;4956634;28;20037;-75
2022/03/19 06:40:59;;;;;;;17.92;11.10;;;21.60;47.60;;;;;;4973387;28;20114;-74
2022/03/19 06:43:25;;;;;;;17.33;10.82;;;21.70;47.50;;;;;;4972844;28;20089;-75
2022/03/19 06:45:51;;;;;;;18.10;11.05;;;21.70;47.60;;;;;;4972230;28;20023;-74
2022/03/19 06:48:17;;;;;;;16.23;10.68;;;21.70;47.80;;;;;;4973235;28;20022;-75
2022/03/19 06:50:43;;;;;;;17.60;10.88;;;21.70;47.80;;;;;;4972140;28;20114;-75
2022/03/19 06:53:08;;;;;;;17.88;10.77;;;21.60;47.90;;;;;;4955814;28;20039;-75
2022/03/19 06:55:34;;;;;;;16.90;10.82;;;21.70;47.80;;;;;;4971791;28;20034;-75
2022/03/19 06:58:00;;;;;;;16.58;10.85;;;21.70;47.90;;;;;;4973066;28;20480;-74
2022/03/19 07:00:26;;;;;;;17.52;11.18;;;21.70;48.00;;;;;;4973225;28;20023;-75
2022/03/19 07:02:54;;;;;;;20.10;11.05;;;21.70;48.00;;;;;;4972713;28;20050;-75
2022/03/19 07:05:26;;;;;;;16.75;10.70;;;21.70;47.80;;;;;;4971804;28;20070;-75
2022/03/19 07:07:53;;;;;;;16.45;10.57;;;21.70;48.00;;;;;;4972925;28;20039;-75
2022/03/19 07:10:20;;;;;;;17.15;11.13;;;21.70;48.10;;;;;;4972671;28;20109;-75
2022/03/19 07:12:47;;;;;;;16.75;10.68;;;21.70;48.20;;;;;;4972626;28;20027;-75
2022/03/19 07:15:24;;;;;;;17.27;10.88;;;21.70;48.20;;;;;;4971541;28;20046;-75
2022/03/19 07:17:50;;;;;;;17.35;10.52;;;21.70;48.30;;;;;;4971416;28;20030;-76
2022/03/19 07:20:17;;;;;;;16.38;10.65;;;21.70;48.30;;;;;;4971431;28;20030;-75
2022/03/19 07:22:46;;;;;;;17.73;10.68;;;21.70;48.50;;;;;;4972334;28;20101;-75
2022/03/19 07:25:13;;;;;;;17.70;10.50;;;21.70;48.50;;;;;;4972721;28;20026;-75
2022/03/19 07:27:39;;;;;;;17.13;10.10;;;21.70;48.60;;;;;;4972131;28;20026;-75
2022/03/19 07:30:06;;;;;;;14.70;9.75;;;21.70;48.70;;;;;;4971516;28;20070;-75
2022/03/19 07:32:32;;;;;;;15.55;9.60;;;21.70;48.70;;;;;;4971059;28;20097;-75
2022/03/19 07:34:59;;;;;;;15.77;9.43;;;21.70;48.70;;;;;;4972582;28;20468;-76
2022/03/19 07:37:25;;;;;;;16.25;9.77;;;21.80;48.80;;;;;;4972368;28;20034;-76
2022/03/19 07:39:50;;;;;;;19.40;9.45;;;21.80;48.70;;;;;;4972658;28;20027;-76
2022/03/19 07:42:17;;;;;;;15.23;9.52;;;21.70;48.70;;;;;;4970851;28;20126;-76
2022/03/19 07:44:43;;;;;;;17.67;10.10;;;21.80;48.80;;;;;;4972487;28;20130;-75
2022/03/19 07:47:09;;;;;;;14.98;9.35;;;21.80;48.70;;;;;;4971374;28;20034;-75
2022/03/19 07:49:34;;;;;;;28.58;9.63;;;21.80;48.80;;;;;;4971444;28;20042;-76
2022/03/19 07:52:05;;;;;;;15.32;9.13;;;21.80;48.70;;;;;;4970952;28;20511;-75
2022/03/19 07:54:31;;;;;;;14.88;9.48;;;21.90;48.70;;;;;;4971422;28;20061;-76
2022/03/19 07:56:57;;;;;;;14.18;9.15;;;21.90;48.90;;;;;;4971038;28;20575;-75
2022/03/19 07:59:23;;;;;;;14.88;8.88;;;21.90;48.90;;;;;;4971197;28;20125;-75
2022/03/19 08:01:49;;;;;;;14.77;9.30;;;21.90;48.90;;;;;;4971116;28;20034;-76
2022/03/19 08:04:15;;;;;;;16.00;8.55;;;21.90;48.80;;;;;;4954568;28;20570;-76
2022/03/19 08:06:41;;;;;;;14.82;9.15;;;21.90;48.80;;;;;;4972335;28;20027;-76
2022/03/19 08:09:09;;;;;;;16.08;9.35;;;22.00;49.00;;;;;;4971425;28;20150;-75
2022/03/19 08:11:35;;;;;;;14.57;8.13;;;22.00;48.90;;;;;;4972216;28;20073;-75
2022/03/19 08:14:01;;;;;;;15.38;9.10;;;22.00;48.90;;;;;;4971900;28;20027;-75
2022/03/19 08:16:26;;;;;;;15.25;8.35;;;22.00;48.90;;;;;;4972201;28;20483;-75
2022/03/19 08:18:52;;;;;;;16.02;8.60;;;22.00;48.90;;;;;;4972230;28;20037;-75
2022/03/19 08:21:18;;;;;;;14.70;8.50;;;22.00;48.80;;;;;;4970817;28;20031;-75
2022/03/19 08:23:46;;;;;;;14.55;8.82;;;22.00;48.80;;;;;;4970557;28;20142;-75
2022/03/19 08:26:12;;;;;;;13.98;8.73;;;22.00;48.90;;;;;;4972093;28;20045;-75
2022/03/19 08:28:37;;;;;;;15.90;8.40;;;22.00;49.10;;;;;;4971998;28;20488;-68
2022/03/19 08:31:03;;;;;;;17.80;8.50;;;22.00;49.20;;;;;;4973352;28;20022;-68
2022/03/19 08:33:29;;;;;;;16.30;5.45;;;21.90;47.00;;;;;;4975248;28;20030;-69
2022/03/19 08:35:55;;;;;;;14.50;4.20;;;21.20;40.00;;;;;;4975926;28;20387;-71
2022/03/19 08:41:05;;;;;;;13.23;4.05;;;20.40;40.50;;;;;;4975664;28;20027;-72
2022/03/19 08:43:31;;;;;;;15.25;3.97;;;20.60;39.70;;;;;;4975095;28;20387;-72
2022/03/19 08:45:56;;;;;;;12.88;3.13;;;20.60;39.10;;;;;;4973978;28;20065;-71
2022/03/19 08:48:22;;;;;;;12.05;3.13;;;20.60;38.10;;;;;;4974085;28;20038;-72
2022/03/19 08:50:48;;;;;;;12.57;3.53;;;20.70;37.90;;;;;;4974189;28;20034;-72
2022/03/19 08:53:15;;;;;;;15.93;3.40;;;20.80;38.60;;;;;;4975258;28;20729;-71
2022/03/19 08:55:41;;;;;;;24.23;3.53;;;20.90;38.30;;;;;;4973894;28;20514;-71
2022/03/19 08:58:08;;;;;;;20.33;3.53;;;20.90;38.70;;;;;;4972536;28;20026;-71
2022/03/19 09:00:34;;;;;;;12.60;3.20;;;20.90;38.50;;;;;;4973909;28;20154;-71
2022/03/19 09:03:00;;;;;;;10.88;3.20;;;20.90;37.30;;;;;;4973892;28;20046;-71
2022/03/19 09:05:27;;;;;;;12.50;3.40;;;20.90;37.20;;;;;;4974847;28;20031;-71
2022/03/19 09:07:53;;;;;;;10.25;2.90;;;20.90;36.60;;;;;;4973910;28;20093;-72
2022/03/19 09:10:19;;;;;;;8.85;2.80;;;20.90;36.30;;;;;;4974842;28;20050;-72
2022/03/19 09:12:45;;;;;;;10.77;2.67;;;20.90;37.10;;;;;;4974770;28;20031;-72
2022/03/19 09:15:11;;;;;;;8.93;2.90;;;20.90;36.40;;;;;;4974400;28;20165;-72
2022/03/19 09:17:38;;;;;;;7.38;2.63;;;20.90;36.30;;;;;;4974868;28;20471;-72
2022/03/19 09:20:05;;;;;;;11.43;3.28;;;20.90;36.10;;;;;;4973686;28;20551;-72
2022/03/19 09:22:31;;;;;;;10.90;3.10;;;20.90;36.00;;;;;;4974395;28;20150;-72
2022/03/19 09:24:57;;;;;;;10.65;2.58;;;20.90;35.60;;;;;;4973295;28;20419;-72
2022/03/19 09:27:22;;;;;;;12.60;3.33;;;20.90;35.50;;;;;;4974665;28;20039;-71
2022/03/19 09:29:48;;;;;;;13.30;4.30;;;20.90;35.50;;;;;;4973277;28;20062;-71
2022/03/19 09:32:17;;;;;;;13.85;5.00;;;20.90;35.70;;;;;;4973303;28;20029;-72
2022/03/19 09:34:47;;;;;;;10.85;4.30;;;20.90;35.70;;;;;;4974357;28;20034;-72
2022/03/19 09:37:14;;;;;;;12.63;3.83;;;20.90;35.60;;;;;;4972966;28;20491;-71
2022/03/19 09:39:40;;;;;;;10.73;3.42;;;20.90;35.70;;;;;;4956996;28;20027;-71
2022/03/19 09:42:11;;;;;;;11.93;3.08;;;20.90;35.40;;;;;;4972774;28;20033;-71
2022/03/19 09:44:36;;;;;;;11.52;3.30;;;20.90;35.10;;;;;;4974089;28;20027;-71
2022/03/19 09:47:04;;;;;;;10.75;3.17;;;20.90;35.00;;;;;;4974393;28;20046;-71
2022/03/19 09:49:31;;;;;;;9.95;2.53;;;20.90;35.00;;;;;;4974260;28;20074;-71
2022/03/19 09:52:00;;;;;;;8.32;2.47;;;20.90;34.80;;;;;;4973887;28;20517;-71
2022/03/19 09:54:26;;;;;;;14.65;2.80;;;20.80;34.60;;;;;;4974174;28;20061;-71
2022/03/19 09:56:52;;;;;;;16.40;7.65;;;20.80;34.60;;;;;;4974025;28;20066;-70
2022/03/19 09:59:18;;;;;;;21.63;12.02;;;20.80;34.40;;;;;;4973264;28;20388;-72
2022/03/19 10:01:45;;;;;;;19.95;11.85;;;20.80;34.20;;;;;;4973431;28;20038;-72
2022/03/19 10:04:12;;;;;;;20.42;11.13;;;20.90;35.10;;;;;;4973163;28;20031;-73
2022/03/19 10:09:48;;;;;;;21.67;9.80;;;21.10;35.90;;;;;;4973487;28;20034;-72
2022/03/19 10:12:22;;;;;;;19.40;8.65;;;21.20;36.00;;;;;;4973008;28;20623;-72
2022/03/19 10:14:54;;;;;;;19.17;10.40;;;21.30;36.30;;;;;;4972561;28;20037;-72
2022/03/19 10:17:31;;;;;;;18.38;9.88;;;21.40;36.00;;;;;;4972783;28;20084;-72
2022/03/19 10:20:12;;;;;;;18.75;9.65;;;21.40;36.40;;;;;;4973600;28;20400;-72
2022/03/19 10:22:43;;;;;;;15.52;8.98;;;21.50;36.80;;;;;;4973504;28;20030;-72
2022/03/19 10:25:11;;;;;;;17.33;9.45;;;21.50;37.00;;;;;;4956369;28;20488;-71
2022/03/19 10:27:40;;;;;;;17.33;8.80;;;21.50;37.40;;;;;;4970824;28;20031;-73
2022/03/19 10:30:10;;;;;;;15.57;8.40;;;21.50;37.50;;;;;;4972149;28;20026;-68
2022/03/19 10:32:39;;;;;;;17.13;7.70;;;21.50;38.00;;;;;;4973278;28;20066;-69
2022/03/19 10:35:05;;;;;;;24.17;14.33;;;21.50;38.10;;;;;;4971954;28;20041;-68
2022/03/19 10:37:37;;;;;;;29.92;17.63;;;21.30;36.30;;;;;;4973616;28;20278;-69
2022/03/19 10:40:05;;;;;;;23.92;12.93;;;21.20;35.40;;;;;;4973337;28;20031;-73
2022/03/19 10:42:42;;;;;;;20.30;11.98;;;21.10;35.80;;;;;;4972149;28;20464;-73
2022/03/19 10:45:10;;;;;;;21.20;11.43;;;21.10;36.30;;;;;;4973125;28;20027;-73
2022/03/19 10:47:43;;;;;;;20.55;10.98;;;21.20;37.00;;;;;;4971663;28;20089;-73
2022/03/19 10:50:24;;;;;;;19.98;11.02;;;21.20;36.80;;;;;;4969877;28;20077;-73
2022/03/19 10:52:51;;;;;;;21.85;10.90;;;21.20;36.90;;;;;;4971701;28;20031;-73
2022/03/19 10:55:17;;;;;;;21.73;11.00;;;21.30;37.00;;;;;;4971954;28;20023;-73
2022/03/19 10:57:45;;;;;;;17.83;10.90;;;21.30;36.60;;;;;;4972743;28;20038;-73
2022/03/19 11:00:11;;;;;;;23.98;10.00;;;21.40;37.50;;;;;;4971947;28;20026;-72
2022/03/19 11:02:48;;;;;;;20.98;10.52;;;21.40;37.70;;;;;;4973082;28;20058;-72
2022/03/19 11:05:18;;;;;;;23.88;10.27;;;21.40;37.90;;;;;;4972845;28;20030;-73
2022/03/19 11:07:45;;;;;;;22.88;9.45;;;21.50;38.50;;;;;;4971608;28;20030;-72
2022/03/19 11:10:11;;;;;;;30.73;10.63;;;21.40;38.60;;;;;;4955505;28;20479;-72
2022/03/19 11:12:42;;;;;;;30.60;10.55;;;21.50;39.60;;;;;;4971176;28;20399;-72
2022/03/19 11:15:10;;;;;;;18.23;9.48;;;21.50;39.60;;;;;;4972676;28;20031;-72
2022/03/19 11:17:39;;;;;;;18.75;10.00;;;21.50;39.60;;;;;;4972685;28;20027;-71
2022/03/19 11:20:08;;;;;;;24.10;10.30;;;21.50;38.80;;;;;;4971430;28;20407;-72
2022/03/19 11:22:39;;;;;;;17.30;9.70;;;21.50;38.80;;;;;;4972264;28;20404;-72
2022/03/19 11:25:26;;;;;;;16.38;9.27;;;21.50;38.80;;;;;;4972670;28;20027;-72
2022/03/19 11:27:56;;;;;;;15.90;8.80;;;21.50;39.30;;;;;;4971092;28;20038;-71
2022/03/19 11:30:24;;;;;;;15.38;8.77;;;21.60;39.40;;;;;;4972728;28;20058;-72
2022/03/19 11:33:14;;;;;;;16.10;9.15;;;21.60;39.90;;;;;;4972077;28;20058;-72
2022/03/19 11:35:44;;;;;;;19.08;8.82;;;21.60;40.00;;;;;;4970647;28;20027;-73
2022/03/19 11:38:13;;;;;;;15.48;8.75;;;21.50;40.10;;;;;;4970190;28;20106;-72
2022/03/19 11:40:47;;;;;;;17.47;8.53;;;21.50;40.50;;;;;;4971343;28;20030;-72
2022/03/19 11:43:25;;;;;;;15.80;8.43;;;21.50;40.00;;;;;;4970818;28;20274;-72
2022/03/19 11:46:02;;;;;;;15.63;7.97;;;21.50;40.10;;;;;;4971515;28;20403;-73
2022/03/19 11:48:46;;;;;;;22.33;9.27;;;21.60;40.10;;;;;;4970960;28;20439;-73
2022/03/19 11:51:28;;;;;;;16.60;8.50;;;21.50;40.20;;;;;;4972366;28;20050;-73
2022/03/19 11:53:53;;;;;;;17.08;8.90;;;21.60;40.30;;;;;;4971889;28;20064;-72
2022/03/19 11:56:24;;;;;;;15.35;8.43;;;21.50;40.30;;;;;;4971033;28;20056;-72
2022/03/19 11:58:51;;;;;;;14.32;8.38;;;21.50;40.40;;;;;;4970962;28;20030;-72
2022/03/19 12:01:17;;;;;;;13.27;8.20;;;21.50;40.50;;;;;;4971430;28;20031;-72
2022/03/19 12:04:21;;;;;;;17.10;8.45;;;21.50;40.60;;;;;;4972126;28;20031;-72
2022/03/19 12:06:54;;;;;;;17.65;7.88;;;21.50;40.70;;;;;;4932540;29;20043;-72
2022/03/19 12:09:52;;;;;;;15.77;7.65;;;21.50;40.70;;;;;;4967406;28;20038;-72
2022/03/19 12:12:24;;;;;;;13.65;8.25;;;21.50;40.80;;;;;;4975627;28;20122;-72
2022/03/19 12:14:51;;;;;;;15.45;7.82;;;21.50;40.90;;;;;;4976080;28;20488;-72
2022/03/19 12:17:26;;;;;;;14.10;7.55;;;21.50;41.60;;;;;;4976028;28;20058;-72
2022/03/19 12:20:01;;;;;;;15.10;8.35;;;21.50;41.00;;;;;;4975869;28;20142;-72
2022/03/19 12:22:38;;;;;;;13.98;7.70;;;21.50;41.10;;;;;;4975560;28;20019;-73
2022/03/19 12:25:18;;;;;;;14.10;7.80;;;21.50;41.20;;;;;;4975957;28;20031;-72
2022/03/19 12:27:52;;;;;;;12.70;7.22;;;21.50;41.20;;;;;;4975872;28;20113;-72
2022/03/19 12:30:20;;;;;;;15.77;8.02;;;21.50;41.80;;;;;;4974084;28;20027;-72
2022/03/19 12:32:54;;;;;;;15.73;8.00;;;21.50;41.20;;;;;;4975705;28;20053;-72
2022/03/19 12:35:22;;;;;;;14.55;7.70;;;21.50;41.30;;;;;;4974126;28;20390;-72
2022/03/19 12:37:50;;;;;;;15.07;7.22;;;21.50;41.30;;;;;;4975662;28;20031;-72
2022/03/19 12:40:27;;;;;;;11.23;6.72;;;21.50;41.40;;;;;;4975634;28;20479;-72
2022/03/19 12:42:58;;;;;;;15.48;7.70;;;21.50;41.40;;;;;;4975446;28;20035;-73
2022/03/19 12:45:37;;;;;;;12.90;7.25;;;21.50;41.50;;;;;;4975476;28;20395;-72
2022/03/19 12:48:20;;;;;;;11.95;7.30;;;21.50;41.50;;;;;;4975424;28;20071;-72
2022/03/19 12:50:51;;;;;;;12.48;7.60;;;21.50;41.60;;;;;;4975268;28;20022;-72